Time;durP1;ratioP1;P1;durP2;ratioP2;P2;SDS_P1;SDS_P2;PMS_P1;PMS_P2;Temp;Humidity;BMP_temperature;BMP_pressure;BME280_temperature;BME280_humidity;BME280_pressure;Samples;Min_cycle;Max_cycle;Signal;HPM_P1;HPM_P2
2021/09/27 07:48:52;;;;;;;7.17;4.53;;;;;;;;;;6187202;22;21578;31
2021/09/27 07:51:20;;;;;;;4.88;3.85;;;;;;;;;;6155790;23;20150;-82
2021/09/27 07:53:45;;;;;;;4.57;4.00;;;;;;;;;;6157157;23;20417;-78
2021/09/27 08:41:45;;;;;;;8.93;4.33;;;;;;;;;;6239638;22;20079;-81
2021/09/27 08:44:46;;;;;;;4.72;4.30;;;;;;;;;;6247587;23;20012;-80
2021/09/27 08:47:18;;;;;;;9.20;4.03;;;;;;;;;;6247454;22;20067;-80
2021/09/27 08:49:53;;;;;;;5.97;4.22;;;;;;;;;;6247575;23;20000;-80
2021/09/27 08:52:21;;;;;;;5.88;4.47;;;;;;;;;;6247323;23;20304;-80
2021/09/27 08:54:48;;;;;;;4.82;4.43;;;;;;;;;;6247378;23;20416;-79
2021/09/27 08:57:39;;;;;;;5.35;4.32;;;;;;;;;;6247302;22;20007;-80
2021/09/27 09:00:14;;;;;;;6.90;4.57;;;;;;;;;;6220084;23;20004;-81
2021/09/27 09:02:53;;;;;;;4.72;4.32;;;;;;;;;;6247183;23;20035;-80
2021/09/27 09:05:32;;;;;;;6.35;5.30;;;;;;;;;;6247652;23;20134;-80
2021/09/27 09:08:16;;;;;;;7.85;4.65;;;;;;;;;;6246965;22;20007;-81
2021/09/27 09:10:46;;;;;;;5.90;4.70;;;;;;;;;;6247474;23;20004;-80
2021/09/27 09:13:16;;;;;;;7.07;4.50;;;;;;;;;;6247211;23;20004;-82
2021/09/27 09:15:45;;;;;;;7.18;6.38;;;;;;;;;;6247244;23;20439;-79
2021/09/27 09:18:15;;;;;;;;;;;;;;;;;;6247473;22;20046;-80
2021/09/27 09:21:02;;;;;;;5.22;4.72;;;;;;;;;;6220250;23;20239;-81
2021/09/27 09:23:38;;;;;;;5.30;4.65;;;;;;;;;;6247092;23;20004;-79
2021/09/27 09:26:11;;;;;;;8.20;4.40;;;;;;;;;;6246930;23;20047;-79
2021/09/27 09:28:38;;;;;;;5.65;5.10;;;;;;;;;;6247053;22;20058;-79
2021/09/27 09:31:13;;;;;;;5.20;4.80;;;;;;;;;;6246821;23;20011;-79
2021/09/27 09:33:55;;;;;;;5.85;5.30;;;;;;;;;;6247302;23;20000;-79
2021/09/27 09:36:24;;;;;;;5.82;5.22;;;;;;;;;;6246952;23;20004;-79
2021/09/27 09:38:49;;;;;;;12.38;6.20;;;;;;;;;;6246792;22;20062;-79
2021/09/27 09:41:16;;;;;;;8.38;5.97;;;;;;;;;;6246958;23;20020;-79
2021/09/27 09:43:45;;;;;;;5.18;4.57;;;;;;;;;;6246894;23;20047;-80
2021/09/27 09:46:34;;;;;;;8.75;6.55;;;;;;;;;;6247294;23;20004;-79
2021/09/27 09:49:11;;;;;;;7.50;6.37;;;;;;;;;;6246613;22;20007;-79
2021/09/27 09:51:44;;;;;;;10.80;5.80;;;;;;;;;;6247168;23;20000;-79
2021/09/27 09:54:19;;;;;;;7.15;6.18;;;;;;;;;;6246681;23;20004;-80
2021/09/27 09:57:14;;;;;;;9.10;6.90;;;;;;;;;;6246853;22;20008;-78
2021/09/27 09:59:51;;;;;;;7.53;6.70;;;;;;;;;;6246957;23;20011;-79
2021/09/27 10:02:21;;;;;;;10.15;6.85;;;;;;;;;;6246750;23;20000;-79
2021/09/27 10:04:53;;;;;;;7.43;6.45;;;;;;;;;;6219976;23;20008;-79
2021/09/27 10:07:26;;;;;;;8.20;6.43;;;;;;;;;;6246413;22;20036;-81
2021/09/27 10:09:51;;;;;;;7.03;5.75;;;;;;;;;;6246959;23;20000;-80
2021/09/27 10:12:39;;;;;;;7.07;5.75;;;;;;;;;;6246026;23;20014;-81
2021/09/27 10:15:05;;;;;;;7.97;6.80;;;;;;;;;;6246443;23;20470;-79
2021/09/27 10:17:34;;;;;;;9.35;6.40;;;;;;;;;;6246391;22;20071;-79
2021/09/27 10:20:17;;;;;;;8.25;5.55;;;;;;;;;;6219303;23;20010;-80
2021/09/27 10:22:57;;;;;;;6.60;4.80;;;;;;;;;;6247016;23;20007;-80
2021/09/27 10:25:35;;;;;;;8.60;5.45;;;;;;;;;;6248066;23;20079;-78
2021/09/27 10:28:03;;;;;;;7.10;5.40;;;;;;;;;;6246888;22;20053;-80
2021/09/27 10:30:56;;;;;;;5.20;4.70;;;;;;;;;;6246315;23;20067;-83
2021/09/27 10:33:28;;;;;;;8.90;5.78;;;;;;;;;;6246547;23;20007;-82
2021/09/27 10:36:04;;;;;;;6.22;5.07;;;;;;;;;;6246630;23;19996;-84
2021/09/27 10:38:40;;;;;;;5.63;4.97;;;;;;;;;;6246292;22;20035;-82
2021/09/27 10:41:23;;;;;;;5.45;4.95;;;;;;;;;;6246177;23;20019;-82
2021/09/27 10:43:53;;;;;;;5.30;4.80;;;;;;;;;;6246663;23;20079;-81
2021/09/27 10:46:19;;;;;;;;;;;;;;;;;;6258697;23;20000;-83
2021/09/27 10:48:49;;;;;;;6.65;4.90;;;;;;;;;;6251237;22;19907;-83
2021/09/27 10:51:16;;;;;;;6.72;4.65;;;;;;;;;;6221470;23;20004;-81
2021/09/27 10:53:55;;;;;;;5.05;4.55;;;;;;;;;;6247723;23;20008;-80
2021/09/27 10:56:23;;;;;;;;;;;;;;;;;;6247475;23;20011;-78
2021/09/27 10:59:11;;;;;;;6.30;4.53;;;;;;;;;;6247155;22;19911;-80
2021/09/27 11:01:42;;;;;;;6.97;5.28;;;;;;;;;;6247106;23;20327;-80
2021/09/27 11:04:20;;;;;;;6.60;4.90;;;;;;;;;;6246988;23;20083;-80
2021/09/27 11:06:55;;;;;;;7.43;4.88;;;;;;;;;;6246716;22;20064;-81
2021/09/27 11:09:30;;;;;;;6.20;4.30;;;;;;;;;;6246709;23;20007;-80
2021/09/27 11:12:06;;;;;;;5.47;4.97;;;;;;;;;;6246824;23;20034;-80
2021/09/27 11:14:35;;;;;;;7.22;5.07;;;;;;;;;;6246433;23;20367;-80
2021/09/27 11:17:06;;;;;;;5.73;5.10;;;;;;;;;;6246612;22;20000;-80
2021/09/27 11:19:32;;;;;;;9.25;4.82;;;;;;;;;;6246247;23;20213;-80
2021/09/27 11:22:13;;;;;;;4.90;4.07;;;;;;;;;;6246704;23;20061;-81
2021/09/27 11:24:44;;;;;;;4.68;4.25;;;;;;;;;;6246560;23;20031;-80
2021/09/27 11:27:16;;;;;;;5.18;4.60;;;;;;;;;;6246610;22;20000;-80
2021/09/27 11:29:51;;;;;;;6.30;3.95;;;;;;;;;;6246543;23;20027;-80
2021/09/27 11:32:22;;;;;;;6.53;4.13;;;;;;;;;;6246627;23;20012;-79
2021/09/27 11:34:55;;;;;;;5.80;3.80;;;;;;;;;;6246385;23;20000;-79
2021/09/27 11:37:26;;;;;;;8.02;4.25;;;;;;;;;;6221114;23;20000;-79
2021/09/27 11:40:01;;;;;;;7.15;4.63;;;;;;;;;;6248798;23;20031;-80
2021/09/27 11:45:00;;;;;;;4.72;4.15;;;;;;;;;;6246817;23;20023;-79
2021/09/27 16:18:16;;;;;;;11.00;6.63;;;;;;;;;;6152260;23;20024;-76
2021/09/27 16:20:44;;;;;;;8.27;6.97;;;;;;;;;;6157576;23;20045;-79
2021/09/27 16:23:10;;;;;;;7.30;6.20;;;;;;;;;;6157011;23;20371;-78
2021/09/27 16:25:35;;;;;;;8.48;6.22;;;;;;;;;;6183187;23;20001;-76
2021/09/27 16:28:03;;;;;;;7.10;6.35;;;;;;;;;;6187546;23;20004;-77
2021/09/27 16:30:30;;;;;;;8.88;6.85;;;;;;;;;;6187091;23;20001;-75
2021/09/27 16:32:57;;;;;;;10.05;7.28;;;;;;;;;;6187125;23;20005;-78
2021/09/27 16:35:23;;;;;;;7.97;7.18;;;;;;;;;;6187065;23;20001;-76
2021/09/27 16:37:49;;;;;;;9.38;6.80;;;;;;;;;;6187221;23;20328;-76
2021/09/27 16:40:14;;;;;;;7.68;6.10;;;;;;;;;;6187052;23;20005;-77
2021/09/27 16:42:40;;;;;;;10.57;7.13;;;;;;;;;;6187295;23;20016;-78
2021/09/27 16:45:07;;;;;;;10.25;7.40;;;;;;;;;;6187167;23;20005;-76
2021/09/27 16:47:32;;;;;;;9.57;7.25;;;;;;;;;;6187264;23;20486;-75
2021/09/27 16:49:58;;;;;;;10.02;8.38;;;;;;;;;;6186903;23;20032;-76
2021/09/27 16:52:24;;;;;;;11.07;7.25;;;;;;;;;;6186878;23;20085;-77
2021/09/27 16:54:51;;;;;;;8.73;6.43;;;;;;;;;;6186549;23;20001;-76
2021/09/27 16:57:17;;;;;;;11.48;8.35;;;;;;;;;;6187354;23;19997;-77
2021/09/27 16:59:44;;;;;;;7.45;6.03;;;;;;;;;;6186728;23;20025;-75
2021/09/27 17:02:11;;;;;;;9.00;7.10;;;;;;;;;;6186959;23;20005;-77
2021/09/27 17:04:37;;;;;;;9.73;6.80;;;;;;;;;;6186619;23;20029;-76
2021/09/27 17:07:04;;;;;;;9.77;6.93;;;;;;;;;;6186646;23;20001;-78
2021/09/27 17:09:29;;;;;;;10.45;7.70;;;;;;;;;;6185099;23;20080;-76
2021/09/27 17:11:55;;;;;;;10.95;7.55;;;;;;;;;;6186732;23;20429;-80
2021/09/27 17:19:36;;;;;;;8.40;7.53;;;;;;;;;;6186489;23;20470;-75
2021/09/27 17:22:06;;;;;;;11.32;7.20;;;;;;;;;;6186791;23;20482;-78
2021/09/27 17:24:33;;;;;;;10.60;7.30;;;;;;;;;;6186881;23;19993;-77
2021/09/27 17:27:06;;;;;;;8.88;7.68;;;;;;;;;;6186597;23;20004;-79
2021/09/27 17:29:35;;;;;;;9.13;7.57;;;;;;;;;;6186339;23;20047;-79
2021/09/27 17:32:02;;;;;;;;;;;;;;;;;;6186815;23;20091;-79
2021/09/27 17:34:31;;;;;;;8.52;6.43;;;;;;;;;;6186373;23;19954;-83
2021/09/27 17:36:59;;;;;;;8.73;7.80;;;;;;;;;;6186475;23;20012;-78
2021/09/27 17:39:27;;;;;;;8.07;7.03;;;;;;;;;;6186616;23;20011;-79
2021/09/27 17:41:56;;;;;;;7.90;6.80;;;;;;;;;;6186958;23;20005;-81
2021/09/27 17:44:24;;;;;;;9.23;7.60;;;;;;;;;;6160088;23;20060;-78
2021/09/27 17:46:51;;;;;;;9.90;7.90;;;;;;;;;;6186637;23;20008;-81
2021/09/27 17:49:20;;;;;;;13.32;8.45;;;;;;;;;;6186383;23;20119;-78
2021/09/27 17:51:53;;;;;;;9.93;7.50;;;;;;;;;;6184451;23;20013;-82
2021/09/27 17:54:21;;;;;;;9.70;7.38;;;;;;;;;;6186420;23;20001;-75
2021/09/27 17:56:49;;;;;;;10.37;8.47;;;;;;;;;;6186340;23;20368;-76
2021/09/27 17:59:17;;;;;;;9.55;7.07;;;;;;;;;;6186390;23;20005;-77
2021/09/27 18:01:45;;;;;;;8.52;7.03;;;;;;;;;;6186540;23;20053;-76
2021/09/27 18:04:13;;;;;;;9.10;6.97;;;;;;;;;;6186276;23;20001;-77
2021/09/27 18:06:43;;;;;;;10.02;7.13;;;;;;;;;;6186317;23;20080;-77
2021/09/27 18:09:10;;;;;;;;;;;;;;;;;;6186755;23;20061;-76
2021/09/27 18:11:40;;;;;;;9.10;6.80;;;;;;;;;;6186125;23;19987;-76
2021/09/27 18:14:07;;;;;;;;;;;;;;;;;;6184833;23;20084;-76
2021/09/27 18:16:37;;;;;;;8.65;7.10;;;;;;;;;;6186287;23;19937;-76
2021/09/27 18:19:05;;;;;;;7.70;6.53;;;;;;;;;;6185895;23;20013;-75
2021/09/27 18:21:33;;;;;;;12.80;8.90;;;;;;;;;;6186335;23;20036;-76
2021/09/27 18:24:01;;;;;;;10.07;8.55;;;;;;;;;;6186005;23;20416;-76
2021/09/27 18:26:28;;;;;;;11.13;8.48;;;;;;;;;;6186180;23;20001;-76
2021/09/27 18:28:54;;;;;;;7.93;7.20;;;;;;;;;;6186207;23;20005;-76
2021/09/27 18:31:21;;;;;;;10.43;7.75;;;;;;;;;;6186113;23;20009;-76
2021/09/27 18:33:47;;;;;;;8.00;6.97;;;;;;;;;;6186099;23;20039;-75
2021/09/27 18:36:15;;;;;;;8.80;7.60;;;;;;;;;;6186274;23;20005;-76
2021/09/27 18:38:42;;;;;;;10.82;7.65;;;;;;;;;;6186490;23;20001;-76
2021/09/27 18:41:10;;;;;;;12.75;9.70;;;;;;;;;;6186121;23;20089;-76
2021/09/27 18:43:37;;;;;;;10.48;8.50;;;;;;;;;;6185822;23;20005;-76
2021/09/27 18:46:05;;;;;;;9.48;7.80;;;;;;;;;;6186019;23;20001;-76
2021/09/27 18:48:33;;;;;;;11.38;7.90;;;;;;;;;;6186100;23;20001;-76
2021/09/27 18:51:04;;;;;;;10.38;8.32;;;;;;;;;;6185884;23;20439;-76
2021/09/27 18:53:31;;;;;;;10.48;7.97;;;;;;;;;;6186075;23;20005;-76
2021/09/27 18:56:01;;;;;;;11.73;8.65;;;;;;;;;;6185638;23;20024;-76
2021/09/27 18:58:29;;;;;;;13.63;11.50;;;;;;;;;;6185715;23;20004;-76
2021/09/27 19:00:57;;;;;;;14.98;11.13;;;;;;;;;;6185636;23;20043;-76
2021/09/27 19:03:24;;;;;;;13.93;9.48;;;;;;;;;;6185740;23;20320;-77
2021/09/27 19:05:51;;;;;;;10.50;7.80;;;;;;;;;;6183947;23;20433;-76
2021/09/27 19:08:18;;;;;;;10.15;7.75;;;;;;;;;;6185732;23;19997;-76
2021/09/27 19:10:49;;;;;;;8.23;7.28;;;;;;;;;;6186137;23;20020;-76
2021/09/27 19:13:18;;;;;;;8.75;7.30;;;;;;;;;;6185872;23;20056;-77
2021/09/27 19:15:53;;;;;;;7.88;6.63;;;;;;;;;;6185773;23;20009;-76
2021/09/27 19:18:21;;;;;;;10.82;7.57;;;;;;;;;;6185512;23;20017;-76
2021/09/27 19:20:53;;;;;;;10.07;8.80;;;;;;;;;;6185884;23;20001;-76
2021/09/27 19:23:24;;;;;;;8.85;7.85;;;;;;;;;;6185894;23;20417;-76
2021/09/27 19:25:54;;;;;;;9.68;7.75;;;;;;;;;;6184172;23;20021;-77
2021/09/27 19:28:28;;;;;;;8.88;7.97;;;;;;;;;;6185821;23;20005;-75
2021/09/27 19:30:57;;;;;;;10.93;7.18;;;;;;;;;;6185746;23;19997;-75
2021/09/27 19:33:23;;;;;;;13.18;8.30;;;;;;;;;;6184143;23;20091;-77
2021/09/27 19:35:49;;;;;;;10.00;7.32;;;;;;;;;;6185129;23;20340;-77
2021/09/27 19:38:15;;;;;;;8.55;7.65;;;;;;;;;;6184970;23;20008;-77
2021/09/27 19:40:41;;;;;;;8.85;7.20;;;;;;;;;;6159403;23;20012;-76
2021/09/27 19:43:12;;;;;;;8.48;7.03;;;;;;;;;;6185508;23;20032;-76
2021/09/27 19:45:38;;;;;;;9.32;7.18;;;;;;;;;;6185488;23;20032;-76
2021/09/27 19:48:04;;;;;;;10.15;7.90;;;;;;;;;;6184135;23;20005;-76
2021/09/27 19:50:31;;;;;;;10.48;8.60;;;;;;;;;;6185650;23;20479;-77
2021/09/27 19:52:57;;;;;;;9.70;7.57;;;;;;;;;;6183875;23;20044;-76
2021/09/27 19:55:26;;;;;;;11.23;7.63;;;;;;;;;;6185547;23;20001;-76
2021/09/27 19:57:52;;;;;;;;;;;;;;;;;;6187079;23;20005;-77
2021/09/27 20:00:18;;;;;;;11.10;8.25;;;;;;;;;;6187688;23;20003;-76
2021/09/27 20:02:44;;;;;;;10.70;9.10;;;;;;;;;;6187356;23;20009;-77
2021/09/27 20:05:10;;;;;;;10.70;8.73;;;;;;;;;;6187271;23;20443;-77
2021/09/27 20:07:37;;;;;;;9.05;7.10;;;;;;;;;;6187630;23;20001;-77
2021/09/27 20:10:05;;;;;;;8.98;7.80;;;;;;;;;;6187418;23;20025;-76
2021/09/27 20:12:30;;;;;;;11.25;7.93;;;;;;;;;;6187112;23;20036;-76
2021/09/27 20:14:56;;;;;;;9.52;7.47;;;;;;;;;;6187194;23;20416;-77
2021/09/27 20:17:21;;;;;;;8.10;7.30;;;;;;;;;;6187507;23;20024;-77
2021/09/27 20:19:47;;;;;;;8.88;7.97;;;;;;;;;;6185553;23;20017;-76
2021/09/27 20:22:13;;;;;;;10.45;7.75;;;;;;;;;;6187167;23;20009;-76
2021/09/27 20:24:39;;;;;;;10.07;7.40;;;;;;;;;;6187185;23;20020;-76
2021/09/27 20:27:06;;;;;;;9.15;7.45;;;;;;;;;;6187003;23;20009;-75
2021/09/27 20:29:33;;;;;;;13.75;8.35;;;;;;;;;;6187280;23;20005;-77
2021/09/27 20:32:00;;;;;;;12.35;8.82;;;;;;;;;;6187054;23;20005;-76
2021/09/27 20:34:25;;;;;;;8.70;7.47;;;;;;;;;;6187047;23;20006;-79
2021/09/27 20:36:51;;;;;;;9.63;7.85;;;;;;;;;;6186977;23;20007;-77
2021/09/27 20:39:17;;;;;;;13.60;8.52;;;;;;;;;;6186994;23;20001;-77
2021/09/27 20:41:42;;;;;;;11.50;8.40;;;;;;;;;;6160993;23;20325;-81
2021/09/27 20:44:08;;;;;;;9.98;8.32;;;;;;;;;;6187170;23;19997;-75
2021/09/27 20:46:34;;;;;;;10.25;8.02;;;;;;;;;;6187116;23;20016;-75
2021/09/27 20:49:00;;;;;;;10.15;8.48;;;;;;;;;;6160652;23;20001;-80
2021/09/27 20:51:25;;;;;;;13.10;8.35;;;;;;;;;;6187075;23;20012;-81
2021/09/27 20:53:51;;;;;;;10.60;8.57;;;;;;;;;;6187110;23;20001;-75
2021/09/27 20:56:17;;;;;;;10.68;8.63;;;;;;;;;;6185489;23;20005;-75
2021/09/27 20:58:43;;;;;;;12.10;8.90;;;;;;;;;;6187155;23;20008;-76
2021/09/27 21:01:09;;;;;;;12.63;8.63;;;;;;;;;;6187077;23;20009;-76
2021/09/27 21:03:36;;;;;;;10.70;8.40;;;;;;;;;;6186993;23;20511;-77
2021/09/27 21:06:03;;;;;;;12.77;8.50;;;;;;;;;;6187037;23;20027;-76
2021/09/27 21:08:29;;;;;;;11.32;7.85;;;;;;;;;;6186872;23;20001;-76
2021/09/27 21:10:54;;;;;;;11.30;9.32;;;;;;;;;;6186902;23;20072;-76
2021/09/27 21:13:20;;;;;;;12.00;8.73;;;;;;;;;;6186684;23;20012;-76
2021/09/27 21:15:47;;;;;;;8.68;7.78;;;;;;;;;;6186106;23;20080;-76
2021/09/27 21:18:16;;;;;;;11.32;8.02;;;;;;;;;;6186803;23;20425;-76
2021/09/27 21:20:43;;;;;;;11.80;7.85;;;;;;;;;;6186978;23;20019;-76
2021/09/27 21:23:13;;;;;;;11.48;7.97;;;;;;;;;;6186905;23;20396;-76
2021/09/27 21:25:38;;;;;;;10.65;8.50;;;;;;;;;;6186470;23;20009;-75
2021/09/27 21:28:04;;;;;;;14.07;9.00;;;;;;;;;;6186861;23;20055;-77
2021/09/27 21:30:29;;;;;;;12.77;8.75;;;;;;;;;;6185704;23;20062;-76
2021/09/27 21:32:57;;;;;;;11.88;8.95;;;;;;;;;;6186594;23;20084;-75
2021/09/27 21:35:23;;;;;;;10.95;9.27;;;;;;;;;;6186496;23;20007;-78
2021/09/27 21:37:49;;;;;;;12.45;9.27;;;;;;;;;;6186731;23;20027;-78
2021/09/27 21:40:15;;;;;;;10.35;8.20;;;;;;;;;;6185102;23;20060;-78
